Gulf Bridge — A8JM5 — position and weather

sailwx.info

Track history (hours):
 
Tides and Currents Weather Stations Pressure Air Temp Water Temp Dewpoint Dewpoint Depression Visibility Wind Speed Wind Dir Waves Ship Positions

Gulf Bridge

Last reported at 2015-Sep-02 21:33 UTC. Time now 2015-Sep-02 21:46 UTC.
Position S 36°30' E 175°48'.

Length 213 m; beam 32.2 m; draft 11.5 m.

Type: Cargo ship. MMSI: 636091115.

Date/timePositionNaut miles runAvg speedWind from/ knotsBaromVisibWave heightAir tempDewpointWater temp
2015-Sep-02 21:33S 36°30' E 175°48'1511.3
2015-Sep-02 20:15S 36°26' E 175°31'7 9.8
2015-Sep-02 19:33S 36°24' E 175°23'9 8.7
2015-Sep-02 18:33S 36°27' E 175°13'9 9.6
2015-Sep-02 17:34S 36°33' E 175°03'10 9.6
2015-Sep-02 16:34S 36°40' E 174°55'9 9.2
2015-Sep-02 15:34S 36°48' E 174°49'3 3.3
2015-Sep-02 14:34S 36°51' E 174°47'0 0.0
2015-Sep-02 13:33S 36°51' E 174°47'0 0.0
2015-Sep-02 12:33S 36°51' E 174°47'0 0.0
2015-Sep-02 11:34S 36°51' E 174°47'0 0.0
2015-Sep-02 10:33S 36°51' E 174°47'0 0.0
2015-Sep-02 09:34S 36°51' E 174°47'0 0.0
2015-Sep-02 08:33S 36°51' E 174°47'0 0.0
2015-Sep-02 07:33S 36°51' E 174°47'0 0.0
2015-Sep-02 06:34S 36°51' E 174°47'0 0.0
2015-Sep-02 05:33S 36°51' E 174°47'0 0.0
2015-Sep-02 04:33S 36°51' E 174°47'0 0.0
2015-Sep-02 03:33S 36°51' E 174°47'0 0.1
2015-Sep-02 02:34S 36°51' E 174°47'7 6.6
2015-Sep-02 01:33S 36°45' E 174°50'6 6.2
2015-Sep-02 00:34S 36°40' E 174°55'8 8.3
2015-Sep-01 23:33S 36°32' E 174°59'9 8.5
2015-Sep-01 22:33S 36°23' E 174°59'9 9.0
2015-Sep-01 21:33S 36°14' E 174°58'  
2015-Aug-27 23:20S 33°19' E 151°54'1114.8
2015-Aug-27 22:34S 33°10' E 152°02'1211.6
2015-Aug-27 21:33S 33°00' E 152°10'1110.9
2015-Aug-27 20:33S 32°52' E 152°18'1111.4
2015-Aug-27 19:33S 32°43' E 152°26'1212.1
2015-Aug-27 18:33S 32°34' E 152°36'22613.8
2015-Aug-27 02:10S 28°57' E 153°50'913.8
2015-Aug-27 01:33S 28°48' E 153°50'1413.6
2015-Aug-27 00:33S 28°35' E 153°50'1414.1
2015-Aug-26 23:34S 28°21' E 153°50'1414.1
2015-Aug-26 22:33S 28°07' E 153°50'1413.9
2015-Aug-26 21:34S 27°53' E 153°48'1414.0
2015-Aug-26 20:33S 27°39' E 153°45'1414.5
2015-Aug-26 19:33S 27°25' E 153°42'1514.7
2015-Aug-26 18:34S 27°11' E 153°38'1514.8
2015-Aug-26 17:33S 26°56' E 153°34'1413.8
2015-Aug-26 16:33S 26°49' E 153°21'1010.3
2015-Aug-26 15:33S 26°44' E 153°11'1515.3
2015-Aug-26 14:33S 26°59' E 153°14'1616.3
2015-Aug-26 13:34S 27°14' E 153°20'1212.1
2015-Aug-26 12:33S 27°23' E 153°10'0 0.0
2015-Aug-26 11:31S 27°23' E 153°10'0 0.0
2015-Aug-26 10:31S 27°23' E 153°10'0 0.0
2015-Aug-26 09:32S 27°23' E 153°10'0 0.0
2015-Aug-26 08:32S 27°23' E 153°10'0 0.0
2015-Aug-26 07:32S 27°23' E 153°10'0 0.0
2015-Aug-26 06:32S 27°23' E 153°10'0 0.0
2015-Aug-26 05:32S 27°23' E 153°10'0 0.0
2015-Aug-26 04:31S 27°23' E 153°10'0 0.0
2015-Aug-26 03:31S 27°23' E 153°10'0 0.0
2015-Aug-26 02:32S 27°23' E 153°10'0 0.0
2015-Aug-26 01:32S 27°23' E 153°10'0 0.0
2015-Aug-26 00:31S 27°23' E 153°10'0 0.0
2015-Aug-25 23:31S 27°23' E 153°10'0 0.0
2015-Aug-25 22:31S 27°23' E 153°10'0 0.0
2015-Aug-25 21:31S 27°23' E 153°10'0 0.0
2015-Aug-25 20:31S 27°23' E 153°10'0 0.0
2015-Aug-25 19:32S 27°23' E 153°10'0 0.0
2015-Aug-25 18:32S 27°23' E 153°10'0 0.0
2015-Aug-25 17:31S 27°23' E 153°10'0 0.0
2015-Aug-25 16:31S 27°23' E 153°10'0 0.0
2015-Aug-25 15:31S 27°23' E 153°10'0 0.0
2015-Aug-25 14:32S 27°23' E 153°10'0 0.0
2015-Aug-25 13:31S 27°23' E 153°10'0 0.0
2015-Aug-25 12:31S 27°23' E 153°10'0 0.0
2015-Aug-25 11:31S 27°23' E 153°10'0 0.0
2015-Aug-25 10:31S 27°23' E 153°10'0 0.0
2015-Aug-25 09:32S 27°23' E 153°10'0 0.0
2015-Aug-25 08:31S 27°23' E 153°10'0 0.0
2015-Aug-25 07:32S 27°23' E 153°10'0 0.0
2015-Aug-25 06:32S 27°23' E 153°10'0 0.0
2015-Aug-25 05:32S 27°23' E 153°10'0 0.0
2015-Aug-25 04:32S 27°23' E 153°10'0 0.0
2015-Aug-25 03:32S 27°23' E 153°10'0 0.0
2015-Aug-25 02:32S 27°23' E 153°10'0 0.0
2015-Aug-25 01:32S 27°23' E 153°10'0 0.0
2015-Aug-25 00:32S 27°23' E 153°10'0 0.0
2015-Aug-24 23:32S 27°23' E 153°10'0 0.0
2015-Aug-24 22:32S 27°23' E 153°10'0 0.0
2015-Aug-24 21:31S 27°23' E 153°10'0 0.0
2015-Aug-24 20:31S 27°23' E 153°10'0 0.0
2015-Aug-24 19:31S 27°23' E 153°10'0 0.0
2015-Aug-24 18:31S 27°23' E 153°10'0 0.0
2015-Aug-24 17:31S 27°23' E 153°10'0 0.0
2015-Aug-24 16:32S 27°23' E 153°10'0 0.0
2015-Aug-24 15:33S 27°23' E 153°10'0 0.0
2015-Aug-24 14:33S 27°23' E 153°10'0 0.0
2015-Aug-24 13:33S 27°23' E 153°10'3 2.9
2015-Aug-24 12:34S 27°20' E 153°12'1514.6
2015-Aug-24 11:33S 27°08' E 153°21'1616.2
2015-Aug-24 10:34S 26°54' E 153°11'1413.7
2015-Aug-24 09:33S 26°41' E 153°14'10 9.8
2015-Aug-24 08:33S 26°31' E 153°15'  
Track history (hours):
 
Tides and Currents Weather Stations Pressure Air Temp Water Temp Dewpoint Dewpoint Depression Visibility Wind Speed Wind Dir Waves Ship Positions

Gulf Bridge

Last reported at 2015-Sep-02 21:33 UTC. Time now 2015-Sep-02 21:46 UTC.
Position S 36°30' E 175°48'.

Length 213 m; beam 32.2 m; draft 11.5 m.

Type: Cargo ship. MMSI: 636091115.

Date/timePositionNaut miles runAvg speedWind from/ knotsBaromVisibWave heightAir tempDewpointWater temp
2015-Sep-02 21:33S 36°30' E 175°48'1511.3
2015-Sep-02 20:15S 36°26' E 175°31'7 9.8
2015-Sep-02 19:33S 36°24' E 175°23'9 8.7
2015-Sep-02 18:33S 36°27' E 175°13'9 9.6
2015-Sep-02 17:34S 36°33' E 175°03'10 9.6
2015-Sep-02 16:34S 36°40' E 174°55'9 9.2
2015-Sep-02 15:34S 36°48' E 174°49'3 3.3
2015-Sep-02 14:34S 36°51' E 174°47'0 0.0
2015-Sep-02 13:33S 36°51' E 174°47'0 0.0
2015-Sep-02 12:33S 36°51' E 174°47'0 0.0
2015-Sep-02 11:34S 36°51' E 174°47'0 0.0
2015-Sep-02 10:33S 36°51' E 174°47'0 0.0
2015-Sep-02 09:34S 36°51' E 174°47'0 0.0
2015-Sep-02 08:33S 36°51' E 174°47'0 0.0
2015-Sep-02 07:33S 36°51' E 174°47'0 0.0
2015-Sep-02 06:34S 36°51' E 174°47'0 0.0
2015-Sep-02 05:33S 36°51' E 174°47'0 0.0
2015-Sep-02 04:33S 36°51' E 174°47'0 0.0
2015-Sep-02 03:33S 36°51' E 174°47'0 0.1
2015-Sep-02 02:34S 36°51' E 174°47'7 6.6
2015-Sep-02 01:33S 36°45' E 174°50'6 6.2
2015-Sep-02 00:34S 36°40' E 174°55'8 8.3
2015-Sep-01 23:33S 36°32' E 174°59'9 8.5
2015-Sep-01 22:33S 36°23' E 174°59'9 9.0
2015-Sep-01 21:33S 36°14' E 174°58'  
2015-Aug-27 23:20S 33°19' E 151°54'1114.8
2015-Aug-27 22:34S 33°10' E 152°02'1211.6
2015-Aug-27 21:33S 33°00' E 152°10'1110.9
2015-Aug-27 20:33S 32°52' E 152°18'1111.4
2015-Aug-27 19:33S 32°43' E 152°26'1212.1
2015-Aug-27 18:33S 32°34' E 152°36'22613.8
2015-Aug-27 02:10S 28°57' E 153°50'913.8
2015-Aug-27 01:33S 28°48' E 153°50'1413.6
2015-Aug-27 00:33S 28°35' E 153°50'1414.1
2015-Aug-26 23:34S 28°21' E 153°50'1414.1
2015-Aug-26 22:33S 28°07' E 153°50'1413.9
2015-Aug-26 21:34S 27°53' E 153°48'1414.0
2015-Aug-26 20:33S 27°39' E 153°45'1414.5
2015-Aug-26 19:33S 27°25' E 153°42'1514.7
2015-Aug-26 18:34S 27°11' E 153°38'1514.8
2015-Aug-26 17:33S 26°56' E 153°34'1413.8
2015-Aug-26 16:33S 26°49' E 153°21'1010.3
2015-Aug-26 15:33S 26°44' E 153°11'1515.3
2015-Aug-26 14:33S 26°59' E 153°14'1616.3
2015-Aug-26 13:34S 27°14' E 153°20'1212.1
2015-Aug-26 12:33S 27°23' E 153°10'0 0.0
2015-Aug-26 11:31S 27°23' E 153°10'0 0.0
2015-Aug-26 10:31S 27°23' E 153°10'0 0.0
2015-Aug-26 09:32S 27°23' E 153°10'0 0.0
2015-Aug-26 08:32S 27°23' E 153°10'0 0.0
2015-Aug-26 07:32S 27°23' E 153°10'0 0.0
2015-Aug-26 06:32S 27°23' E 153°10'0 0.0
2015-Aug-26 05:32S 27°23' E 153°10'0 0.0
2015-Aug-26 04:31S 27°23' E 153°10'0 0.0
2015-Aug-26 03:31S 27°23' E 153°10'0 0.0
2015-Aug-26 02:32S 27°23' E 153°10'0 0.0
2015-Aug-26 01:32S 27°23' E 153°10'0 0.0
2015-Aug-26 00:31S 27°23' E 153°10'0 0.0
2015-Aug-25 23:31S 27°23' E 153°10'0 0.0
2015-Aug-25 22:31S 27°23' E 153°10'0 0.0
2015-Aug-25 21:31S 27°23' E 153°10'0 0.0
2015-Aug-25 20:31S 27°23' E 153°10'0 0.0
2015-Aug-25 19:32S 27°23' E 153°10'0 0.0
2015-Aug-25 18:32S 27°23' E 153°10'0 0.0
2015-Aug-25 17:31S 27°23' E 153°10'0 0.0
2015-Aug-25 16:31S 27°23' E 153°10'0 0.0
2015-Aug-25 15:31S 27°23' E 153°10'0 0.0
2015-Aug-25 14:32S 27°23' E 153°10'0 0.0
2015-Aug-25 13:31S 27°23' E 153°10'0 0.0
2015-Aug-25 12:31S 27°23' E 153°10'0 0.0
2015-Aug-25 11:31S 27°23' E 153°10'0 0.0
2015-Aug-25 10:31S 27°23' E 153°10'0 0.0
2015-Aug-25 09:32S 27°23' E 153°10'0 0.0
2015-Aug-25 08:31S 27°23' E 153°10'0 0.0
2015-Aug-25 07:32S 27°23' E 153°10'0 0.0
2015-Aug-25 06:32S 27°23' E 153°10'0 0.0
2015-Aug-25 05:32S 27°23' E 153°10'0 0.0
2015-Aug-25 04:32S 27°23' E 153°10'0 0.0
2015-Aug-25 03:32S 27°23' E 153°10'0 0.0
2015-Aug-25 02:32S 27°23' E 153°10'0 0.0
2015-Aug-25 01:32S 27°23' E 153°10'0 0.0
2015-Aug-25 00:32S 27°23' E 153°10'0 0.0
2015-Aug-24 23:32S 27°23' E 153°10'0 0.0
2015-Aug-24 22:32S 27°23' E 153°10'0 0.0
2015-Aug-24 21:31S 27°23' E 153°10'0 0.0
2015-Aug-24 20:31S 27°23' E 153°10'0 0.0
2015-Aug-24 19:31S 27°23' E 153°10'0 0.0
2015-Aug-24 18:31S 27°23' E 153°10'0 0.0
2015-Aug-24 17:31S 27°23' E 153°10'0 0.0
2015-Aug-24 16:32S 27°23' E 153°10'0 0.0
2015-Aug-24 15:33S 27°23' E 153°10'0 0.0
2015-Aug-24 14:33S 27°23' E 153°10'0 0.0
2015-Aug-24 13:33S 27°23' E 153°10'3 2.9
2015-Aug-24 12:34S 27°20' E 153°12'1514.6
2015-Aug-24 11:33S 27°08' E 153°21'1616.2
2015-Aug-24 10:34S 26°54' E 153°11'1413.7
2015-Aug-24 09:33S 26°41' E 153°14'10 9.8
2015-Aug-24 08:33S 26°31' E 153°15'  

Dump ship's entire track history